createdAt,value
2022-11-11T00:00:04.000Z,96679.34
2022-11-11T00:02:50.997Z,96679.66
2022-11-11T00:05:37.815Z,96676.09
2022-11-11T00:08:25.884Z,96668.75
2022-11-11T00:11:14.538Z,96663.16
2022-11-11T00:14:01.242Z,96662.00
2022-11-11T00:17:05.370Z,96659.41
2022-11-11T00:20:09.406Z,96657.44
2022-11-11T00:23:22.128Z,96656.31
2022-11-11T00:26:38.040Z,96651.88
2022-11-11T00:29:18.301Z,96656.28
2022-11-11T00:32:23.029Z,96663.63
2022-11-11T00:35:27.864Z,96671.41
2022-11-11T00:38:36.490Z,96663.25
2022-11-11T00:41:25.674Z,96672.72
2022-11-11T00:44:12.779Z,96672.84
2022-11-11T00:47:17.136Z,96670.38
2022-11-11T00:50:21.935Z,96671.16
2022-11-11T00:53:12.226Z,96666.66
2022-11-11T00:55:59.394Z,96658.53
2022-11-11T00:58:47.643Z,96649.72
2022-11-11T01:01:35.270Z,96651.84
2022-11-11T01:04:21.727Z,96651.06
2022-11-11T01:07:08.364Z,96656.75
2022-11-11T01:09:55.053Z,96660.03
2022-11-11T01:12:41.642Z,96652.19
2022-11-11T01:15:29.728Z,96653.19
2022-11-11T01:18:20.344Z,96649.09
2022-11-11T01:21:09.531Z,96649.72
2022-11-11T01:23:56.178Z,96648.88
2022-11-11T01:26:43.222Z,96658.50
2022-11-11T01:29:30.206Z,96657.00
2022-11-11T01:32:18.103Z,96663.03
2022-11-11T01:35:05.164Z,96662.97
2022-11-11T01:37:51.615Z,96653.69
2022-11-11T01:40:43.247Z,96655.91
2022-11-11T01:43:30.330Z,96655.09
2022-11-11T01:46:25.106Z,96662.59
2022-11-11T01:49:24.336Z,96658.50
2022-11-11T01:52:15.823Z,96659.34
2022-11-11T01:55:07.808Z,96657.38
2022-11-11T01:57:59.039Z,96665.34
2022-11-11T02:00:45.813Z,96665.97
2022-11-11T02:03:36.978Z,96672.22
2022-11-11T02:06:25.107Z,96668.25
2022-11-11T02:09:12.041Z,96669.16
2022-11-11T02:12:18.738Z,96667.34
2022-11-11T02:15:07.072Z,96672.69
2022-11-11T02:17:53.882Z,96677.72
2022-11-11T02:20:44.191Z,96666.78
2022-11-11T02:23:35.201Z,96667.91
2022-11-11T02:26:24.086Z,96676.34
2022-11-11T02:29:14.895Z,96666.50
2022-11-11T02:32:01.688Z,96669.66
2022-11-11T02:34:48.638Z,96667.41
2022-11-11T02:37:35.348Z,96666.63
2022-11-11T02:40:26.193Z,96678.88
2022-11-11T02:43:14.435Z,96683.09
2022-11-11T02:46:02.318Z,96673.19
2022-11-11T02:48:49.193Z,96675.31
2022-11-11T02:51:36.002Z,96670.34
2022-11-11T02:54:22.571Z,96673.47
2022-11-11T02:57:09.413Z,96675.56
2022-11-11T02:59:59.735Z,96683.31
2022-11-11T03:02:46.741Z,96692.19
2022-11-11T03:05:33.433Z,96689.16
2022-11-11T03:08:20.391Z,96702.34
2022-11-11T03:11:07.183Z,96706.16
2022-11-11T03:13:54.757Z,96707.22
2022-11-11T03:17:00.482Z,96710.72
2022-11-11T03:19:47.283Z,96714.88
2022-11-11T03:25:40.648Z,96724.28
2022-11-11T03:28:27.424Z,96728.72
2022-11-11T03:31:14.024Z,96730.28
2022-11-11T03:34:18.372Z,96736.47
2022-11-11T03:37:24.069Z,96749.06
2022-11-11T03:40:12.015Z,96743.50
2022-11-11T03:43:04.213Z,96738.31
2022-11-11T03:45:52.054Z,96742.03
2022-11-11T03:48:38.796Z,96743.00
2022-11-11T03:51:26.787Z,96744.13
2022-11-11T03:54:13.546Z,96739.94
2022-11-11T03:57:14.262Z,96724.88
2022-11-11T04:00:00.711Z,96725.09
2022-11-11T04:03:05.051Z,96718.69
2022-11-11T04:06:09.554Z,96715.50
2022-11-11T04:09:14.681Z,96716.00
2022-11-11T04:12:01.349Z,96716.63
2022-11-11T04:15:05.394Z,96721.00
2022-11-11T04:17:52.045Z,96713.63
2022-11-11T04:20:55.898Z,96710.03
2022-11-11T04:23:42.470Z,96699.63
2022-11-11T04:26:29.505Z,96707.84
2022-11-11T04:29:31.414Z,96709.44
2022-11-11T04:32:39.299Z,96714.59
2022-11-11T04:35:26.843Z,96704.31
2022-11-11T04:38:41.813Z,96710.00
2022-11-11T04:41:40.787Z,96707.69
2022-11-11T04:44:54.103Z,96711.25
2022-11-11T04:47:53.243Z,96714.00
2022-11-11T04:50:42.337Z,96708.13
2022-11-11T04:53:30.528Z,96728.09
2022-11-11T04:56:35.036Z,96726.81
2022-11-11T04:59:21.601Z,96728.44
2022-11-11T05:02:27.127Z,96733.66
2022-11-11T05:05:14.017Z,96728.44
2022-11-11T05:08:18.410Z,96723.09
2022-11-11T05:11:05.313Z,96730.69
2022-11-11T05:14:09.587Z,96740.97
2022-11-11T05:17:15.476Z,96745.34
2022-11-11T05:20:20.963Z,96748.56
2022-11-11T05:23:07.588Z,96749.19
2022-11-11T05:25:53.072Z,96743.25
2022-11-11T05:28:39.510Z,96739.41
2022-11-11T05:31:26.007Z,96750.25
2022-11-11T05:34:12.748Z,96732.31
2022-11-11T05:37:00.638Z,96731.78
2022-11-11T05:39:47.592Z,96740.78
2022-11-11T05:42:34.279Z,96739.13
2022-11-11T05:45:20.904Z,96739.59
2022-11-11T05:48:07.604Z,96738.88
2022-11-11T05:50:54.231Z,96748.88
2022-11-11T05:53:42.534Z,96755.31
2022-11-11T05:56:28.975Z,96761.91
2022-11-11T05:59:15.738Z,96762.88
2022-11-11T06:02:02.750Z,96774.66
2022-11-11T06:04:49.721Z,96779.13
2022-11-11T06:07:39.499Z,96785.22
2022-11-11T06:10:33.751Z,96787.19
2022-11-11T06:13:20.222Z,96780.16
2022-11-11T06:16:07.937Z,96790.72
2022-11-11T06:18:54.696Z,96795.94
2022-11-11T06:22:01.193Z,96800.72
2022-11-11T06:25:08.327Z,96801.38
2022-11-11T06:27:56.539Z,96811.63
2022-11-11T06:30:50.124Z,96816.78
2022-11-11T06:33:38.820Z,96820.88
2022-11-11T06:36:25.674Z,96823.03
2022-11-11T06:39:12.299Z,96822.81
2022-11-11T06:41:59.544Z,96822.31
2022-11-11T06:44:47.889Z,96826.44
2022-11-11T06:47:34.444Z,96824.34
2022-11-11T06:50:21.732Z,96829.94
2022-11-11T06:53:09.227Z,96827.47
2022-11-11T06:55:56.182Z,96834.28
2022-11-11T06:58:43.000Z,96835.91
2022-11-11T07:01:31.507Z,96854.31
2022-11-11T07:04:18.433Z,96847.53
2022-11-11T07:07:05.210Z,96847.97
2022-11-11T07:09:52.081Z,96863.53
2022-11-11T07:12:41.948Z,96865.56
2022-11-11T07:15:28.617Z,96872.00
2022-11-11T07:18:16.589Z,96869.91
2022-11-11T07:21:03.081Z,96880.25
2022-11-11T07:23:49.593Z,96874.69
2022-11-11T07:26:36.413Z,96873.44
2022-11-11T07:29:23.252Z,96873.13
2022-11-11T07:32:10.087Z,96877.78
2022-11-11T07:34:58.199Z,96883.19
2022-11-11T07:37:45.376Z,96885.47
2022-11-11T07:40:31.920Z,96885.34
2022-11-11T07:43:20.089Z,96881.38
2022-11-11T07:46:06.957Z,96878.66
2022-11-11T07:48:54.006Z,96881.44
2022-11-11T07:51:41.868Z,96887.34
2022-11-11T07:54:29.345Z,96880.78
2022-11-11T07:57:15.652Z,96883.94
2022-11-11T08:00:02.468Z,96882.63
2022-11-11T08:02:49.193Z,96893.75
2022-11-11T08:05:35.860Z,96898.47
2022-11-11T08:08:26.986Z,96905.38
2022-11-11T08:11:14.131Z,96898.19
2022-11-11T08:13:59.783Z,96887.38
2022-11-11T08:16:46.373Z,96901.59
2022-11-11T08:19:33.310Z,96901.28
2022-11-11T08:22:19.964Z,96893.44
2022-11-11T08:25:10.767Z,96891.63
2022-11-11T08:28:01.129Z,96894.41
2022-11-11T08:30:49.081Z,96899.81
2022-11-11T08:33:37.335Z,96890.31
2022-11-11T08:36:25.461Z,96886.38
2022-11-11T08:39:12.960Z,96875.69
2022-11-11T08:42:00.906Z,96874.66
2022-11-11T08:44:47.995Z,96885.59
2022-11-11T08:47:36.234Z,96877.28
2022-11-11T08:50:22.961Z,96873.25
2022-11-11T08:53:10.417Z,96877.47
2022-11-11T08:55:56.921Z,96867.88
2022-11-11T08:58:45.822Z,96874.03
2022-11-11T09:01:32.222Z,96862.38
2022-11-11T09:07:26.107Z,96853.34
2022-11-11T09:10:15.783Z,96860.13
2022-11-11T09:13:03.234Z,96859.81
2022-11-11T09:15:53.909Z,96858.22
2022-11-11T09:18:41.273Z,96859.31
2022-11-11T09:21:27.726Z,96851.06
2022-11-11T09:24:14.430Z,96854.19
2022-11-11T09:27:01.007Z,96856.81
2022-11-11T09:29:49.566Z,96852.94
2022-11-11T09:32:37.691Z,96855.84
2022-11-11T09:35:25.561Z,96860.56
2022-11-11T09:38:12.287Z,96857.34
2022-11-11T09:41:13.837Z,96853.16
2022-11-11T09:44:02.113Z,96860.38
2022-11-11T09:46:59.055Z,96865.13
2022-11-11T09:49:59.455Z,96870.28
2022-11-11T09:52:51.039Z,96863.69
2022-11-11T09:55:41.737Z,96857.16
2022-11-11T09:58:33.584Z,96851.47
2022-11-11T10:01:24.410Z,96841.38
2022-11-11T10:04:29.528Z,96843.06
2022-11-11T10:07:35.275Z,96838.72
2022-11-11T10:10:28.397Z,96843.25
2022-11-11T10:13:17.373Z,96848.28
2022-11-11T10:16:11.903Z,96840.19
2022-11-11T10:19:13.594Z,96843.91
2022-11-11T10:22:18.380Z,96845.72
2022-11-11T10:25:22.162Z,96843.22
2022-11-11T10:28:16.406Z,96835.31
2022-11-11T10:31:05.725Z,96839.34
2022-11-11T10:33:57.918Z,96833.84
2022-11-11T10:36:47.406Z,96833.03
2022-11-11T10:39:47.781Z,96836.28
2022-11-11T10:42:38.293Z,96835.06
2022-11-11T10:45:32.781Z,96820.75
2022-11-11T10:48:25.778Z,96818.25
2022-11-11T10:51:13.619Z,96816.16
2022-11-11T10:54:06.985Z,96813.19
2022-11-11T10:57:01.804Z,96809.75
2022-11-11T10:59:55.224Z,96810.16
2022-11-11T11:02:46.790Z,96818.38
2022-11-11T11:05:38.500Z,96815.44
2022-11-11T11:08:30.399Z,96818.25
2022-11-11T11:11:22.650Z,96816.44
2022-11-11T11:14:14.207Z,96812.53
2022-11-11T11:17:10.679Z,96808.59
2022-11-11T11:20:11.134Z,96811.66
2022-11-11T11:23:01.713Z,96809.34
2022-11-11T11:25:54.808Z,96810.19
2022-11-11T11:28:56.229Z,96808.97
2022-11-11T11:31:43.045Z,96811.34
2022-11-11T11:34:46.363Z,96814.81
2022-11-11T11:37:32.956Z,96820.97
2022-11-11T11:40:19.789Z,96822.03
2022-11-11T11:43:25.806Z,96814.84
2022-11-11T11:46:25.562Z,96816.69
2022-11-11T11:49:25.557Z,96809.00
2022-11-11T11:52:22.352Z,96811.78
2022-11-11T11:55:16.804Z,96816.34
2022-11-11T11:58:29.258Z,96817.47
2022-11-11T12:01:23.255Z,96808.69
2022-11-11T12:04:54.703Z,96795.66
2022-11-11T12:08:04.219Z,96788.69
2022-11-11T12:10:57.397Z,96781.31
2022-11-11T12:13:59.493Z,96783.50
2022-11-11T12:16:54.355Z,96776.91
2022-11-11T12:19:52.743Z,96764.66
2022-11-11T12:22:58.529Z,96768.31
2022-11-11T12:25:53.593Z,96761.47
2022-11-11T12:28:56.835Z,96762.84
2022-11-11T12:32:04.008Z,96771.84
2022-11-11T12:35:16.779Z,96762.50
2022-11-11T12:38:20.079Z,96747.94
2022-11-11T12:41:18.032Z,96739.25
2022-11-11T12:44:08.092Z,96731.19
2022-11-11T12:47:18.083Z,96741.44
2022-11-11T12:50:18.249Z,96749.47
2022-11-11T12:53:19.655Z,96753.38
2022-11-11T12:56:15.332Z,96757.44
2022-11-11T12:59:10.476Z,96759.75
2022-11-11T13:02:03.575Z,96749.31
2022-11-11T13:05:02.493Z,96751.13
2022-11-11T13:08:09.914Z,96739.56
2022-11-11T13:11:04.759Z,96745.63
2022-11-11T13:14:05.108Z,96743.66
2022-11-11T13:16:53.091Z,96749.91
2022-11-11T13:19:45.974Z,96752.25
2022-11-11T13:22:33.779Z,96744.38
2022-11-11T13:25:23.915Z,96744.41
2022-11-11T13:28:19.523Z,96747.72
2022-11-11T13:31:23.682Z,96749.47
2022-11-11T13:34:13.272Z,96761.03
2022-11-11T13:37:00.158Z,96770.00
2022-11-11T13:39:54.421Z,96764.94
2022-11-11T13:42:51.318Z,96775.09
2022-11-11T13:45:42.551Z,96773.47
2022-11-11T13:48:31.925Z,96775.44
2022-11-11T13:51:26.080Z,96782.31
2022-11-11T13:54:25.759Z,96775.72
2022-11-11T13:57:21.341Z,96771.88
2022-11-11T14:00:25.589Z,96766.63
2022-11-11T14:03:35.474Z,96766.19
2022-11-11T14:06:55.313Z,96769.00
2022-11-11T14:10:08.778Z,96767.63
2022-11-11T14:12:56.628Z,96773.25
2022-11-11T14:15:45.605Z,96765.59
2022-11-11T14:18:39.758Z,96769.16
2022-11-11T14:21:50.537Z,96771.25
2022-11-11T14:24:40.396Z,96765.78
2022-11-11T14:27:30.442Z,96783.97
2022-11-11T14:30:39.605Z,96785.50
2022-11-11T14:33:45.018Z,96775.97
2022-11-11T14:36:40.331Z,96787.03
2022-11-11T14:39:37.155Z,96798.25
2022-11-11T14:42:48.960Z,96801.94
2022-11-11T14:46:03.247Z,96811.38
2022-11-11T14:49:02.724Z,96815.28
2022-11-11T14:51:51.972Z,96814.50
2022-11-11T14:55:00.639Z,96816.78
2022-11-11T14:57:49.885Z,96805.41
2022-11-11T15:00:47.250Z,96807.59
2022-11-11T15:03:39.361Z,96807.16
2022-11-11T15:06:33.651Z,96804.09
2022-11-11T15:09:42.166Z,96797.19
2022-11-11T15:12:44.579Z,96799.19
2022-11-11T15:15:40.838Z,96806.31
2022-11-11T15:18:48.584Z,96810.94
2022-11-11T15:21:38.335Z,96807.88
2022-11-11T15:24:35.540Z,96813.91
2022-11-11T15:27:34.764Z,96807.41
2022-11-11T15:30:25.662Z,96799.66
2022-11-11T15:33:19.692Z,96797.94
2022-11-11T15:36:15.620Z,96799.84
2022-11-11T15:39:09.151Z,96808.66
2022-11-11T15:41:55.749Z,96797.53
2022-11-11T15:44:42.809Z,96797.94
2022-11-11T15:47:34.390Z,96811.47
2022-11-11T15:50:31.915Z,96814.13
2022-11-11T15:53:24.910Z,96812.16
2022-11-11T15:56:13.168Z,96813.84
2022-11-11T15:59:17.534Z,96820.38
2022-11-11T16:02:09.191Z,96820.47
2022-11-11T16:04:58.680Z,96822.56
2022-11-11T16:07:46.268Z,96835.97
2022-11-11T16:10:35.881Z,96834.47
2022-11-11T16:13:29.444Z,96825.41
2022-11-11T16:16:21.069Z,96828.50
2022-11-11T16:19:17.240Z,96842.28
2022-11-11T16:22:08.050Z,96842.97
2022-11-11T16:24:56.694Z,96842.16
2022-11-11T16:27:43.083Z,96846.06
2022-11-11T16:30:34.452Z,96847.13
2022-11-11T16:33:33.451Z,96847.81
2022-11-11T16:36:20.089Z,96848.00
2022-11-11T16:39:16.774Z,96851.78
2022-11-11T16:42:05.394Z,96856.53
2022-11-11T16:44:57.133Z,96858.09
2022-11-11T16:47:48.299Z,96859.81
2022-11-11T16:50:35.254Z,96864.34
2022-11-11T16:53:30.342Z,96858.59
2022-11-11T16:56:22.344Z,96861.00
2022-11-11T16:59:12.627Z,96866.41
2022-11-11T17:01:59.400Z,96863.47
2022-11-11T17:04:52.852Z,96866.97
2022-11-11T17:07:41.809Z,96861.47
2022-11-11T17:10:29.708Z,96849.28
2022-11-11T17:13:16.097Z,96843.59
2022-11-11T17:16:04.950Z,96853.00
2022-11-11T17:18:51.674Z,96859.09
2022-11-11T17:21:39.536Z,96854.03
2022-11-11T17:24:25.799Z,96852.84
2022-11-11T17:27:12.359Z,96848.16
2022-11-11T17:29:59.384Z,96847.50
2022-11-11T17:32:48.717Z,96846.41
2022-11-11T17:35:35.094Z,96841.19
2022-11-11T17:38:22.802Z,96840.38
2022-11-11T17:41:09.674Z,96838.59
2022-11-11T17:43:56.629Z,96833.38
2022-11-11T17:46:43.502Z,96844.56
2022-11-11T17:49:55.273Z,96838.19
2022-11-11T17:52:40.445Z,96834.09
2022-11-11T17:55:28.117Z,96840.16
2022-11-11T17:58:14.466Z,96848.19
2022-11-11T18:01:06.598Z,96850.63
2022-11-11T18:03:56.717Z,96854.47
2022-11-11T18:06:43.282Z,96853.16
2022-11-11T18:09:29.879Z,96848.66
2022-11-11T18:12:17.965Z,96845.88
2022-11-11T18:15:05.614Z,96843.81
2022-11-11T18:17:51.939Z,96847.59
2022-11-11T18:20:38.903Z,96844.31
2022-11-11T18:23:25.896Z,96846.13
2022-11-11T18:26:12.766Z,96849.72
2022-11-11T18:29:00.805Z,96838.47
2022-11-11T18:31:49.805Z,96835.97
2022-11-11T18:34:40.266Z,96823.59
2022-11-11T18:37:26.924Z,96820.13
2022-11-11T18:40:14.542Z,96823.75
2022-11-11T18:43:01.266Z,96828.47
2022-11-11T18:45:50.909Z,96823.22
2022-11-11T18:48:38.503Z,96821.34
2022-11-11T18:51:25.119Z,96816.47
2022-11-11T18:54:11.759Z,96832.72
2022-11-11T18:56:58.723Z,96833.25
2022-11-11T18:59:46.079Z,96834.19
2022-11-11T19:02:33.913Z,96838.94
2022-11-11T19:05:20.395Z,96847.00
2022-11-11T19:08:07.042Z,96853.34
2022-11-11T19:10:53.597Z,96867.78
2022-11-11T19:13:40.517Z,96872.34
2022-11-11T19:16:27.299Z,96873.50
2022-11-11T19:19:16.334Z,96864.97
2022-11-11T19:22:03.191Z,96868.72
2022-11-11T19:24:49.710Z,96863.66
2022-11-11T19:27:36.280Z,96859.41
2022-11-11T19:30:23.285Z,96851.25
2022-11-11T19:33:10.144Z,96847.47
2022-11-11T19:35:59.302Z,96849.47
2022-11-11T19:38:47.667Z,96841.09
2022-11-11T19:41:36.640Z,96839.00
2022-11-11T19:44:23.690Z,96838.16
2022-11-11T19:47:10.409Z,96839.16
2022-11-11T19:49:57.285Z,96822.47
2022-11-11T19:52:45.380Z,96836.53
2022-11-11T19:55:32.136Z,96842.91
2022-11-11T19:58:18.595Z,96847.16
2022-11-11T20:01:09.526Z,96844.06
2022-11-11T20:03:57.219Z,96851.91
2022-11-11T20:06:43.991Z,96852.38
2022-11-11T20:09:36.246Z,96855.84
2022-11-11T20:12:22.943Z,96864.31
2022-11-11T20:15:10.488Z,96878.38
2022-11-11T20:17:56.884Z,96881.19
2022-11-11T20:20:43.594Z,96879.88
2022-11-11T20:23:30.839Z,96884.94
2022-11-11T20:26:19.629Z,96878.03
2022-11-11T20:29:06.336Z,96872.66
2022-11-11T20:31:52.966Z,96877.06
2022-11-11T20:34:39.562Z,96886.06
2022-11-11T20:37:27.038Z,96885.44
2022-11-11T20:40:13.606Z,96875.13
2022-11-11T20:43:02.075Z,96875.56
2022-11-11T20:45:48.675Z,96877.03
2022-11-11T20:48:35.466Z,96881.31
2022-11-11T20:51:23.768Z,96868.06
2022-11-11T20:54:10.542Z,96871.47
2022-11-11T20:56:56.916Z,96868.06
2022-11-11T20:59:44.929Z,96868.88
2022-11-11T21:02:32.527Z,96868.84
2022-11-11T21:05:19.989Z,96861.16
2022-11-11T21:08:06.408Z,96864.28
2022-11-11T21:10:56.359Z,96867.72
2022-11-11T21:13:45.659Z,96865.91
2022-11-11T21:16:33.764Z,96870.00
2022-11-11T21:19:20.358Z,96881.75
2022-11-11T21:22:10.116Z,96877.22
2022-11-11T21:24:56.995Z,96872.78
2022-11-11T21:27:43.438Z,96871.28
2022-11-11T21:30:29.849Z,96870.44
2022-11-11T21:33:17.567Z,96875.03
2022-11-11T21:36:07.123Z,96865.91
2022-11-11T21:38:54.112Z,96860.31
2022-11-11T21:41:41.795Z,96859.47
2022-11-11T21:44:28.235Z,96859.50
2022-11-11T21:47:17.358Z,96851.19
2022-11-11T21:50:05.999Z,96854.63
2022-11-11T21:52:52.439Z,96857.53
2022-11-11T21:55:38.854Z,96861.63
2022-11-11T21:58:25.349Z,96854.75
2022-11-11T22:01:14.582Z,96856.13
2022-11-11T22:04:03.171Z,96850.91
2022-11-11T22:06:51.788Z,96852.06
2022-11-11T22:09:38.564Z,96849.13
2022-11-11T22:12:25.163Z,96849.47
2022-11-11T22:15:12.692Z,96852.56
2022-11-11T22:17:59.916Z,96848.16
2022-11-11T22:20:46.606Z,96853.16
2022-11-11T22:23:34.979Z,96861.41
2022-11-11T22:26:51.127Z,96854.63
2022-11-11T22:29:38.084Z,96854.22
2022-11-11T22:32:25.454Z,96850.28
2022-11-11T22:35:11.892Z,96852.56
2022-11-11T22:37:58.938Z,96856.59
2022-11-11T22:40:45.388Z,96863.13
2022-11-11T22:43:58.480Z,96865.88
2022-11-11T22:46:44.336Z,96865.53
2022-11-11T22:49:31.234Z,96865.09
2022-11-11T22:52:18.059Z,96864.59
2022-11-11T22:55:04.968Z,96872.28
2022-11-11T22:57:51.754Z,96873.75
2022-11-11T23:00:40.826Z,96871.28
2022-11-11T23:03:27.748Z,96868.84
2022-11-11T23:06:17.093Z,96870.84
2022-11-11T23:09:18.577Z,96856.94
2022-11-11T23:12:05.783Z,96858.38
2022-11-11T23:14:52.344Z,96842.34
2022-11-11T23:17:40.590Z,96842.91
2022-11-11T23:20:27.258Z,96841.41
2022-11-11T23:23:13.482Z,96842.13
2022-11-11T23:26:03.166Z,96829.47
2022-11-11T23:28:50.120Z,96822.25
2022-11-11T23:31:36.870Z,96815.19
2022-11-11T23:34:24.955Z,96815.34
2022-11-11T23:37:11.898Z,96811.00
2022-11-11T23:39:58.822Z,96815.00
2022-11-11T23:42:45.436Z,96814.59
2022-11-11T23:45:32.847Z,96820.53
2022-11-11T23:48:19.949Z,96815.84
2022-11-11T23:51:08.057Z,96806.97
2022-11-11T23:53:54.954Z,96827.59
2022-11-11T23:56:41.803Z,96831.94
2022-11-11T23:59:28.752Z,96840.16
